Time;durP1;ratioP1;P1;durP2;ratioP2;P2;SDS_P1;SDS_P2;PMS_P1;PMS_P2;Temp;Humidity;BMP_temperature;BMP_pressure;BME280_temperature;BME280_humidity;BME280_pressure;Samples;Min_cycle;Max_cycle;Signal;HPM_P1;HPM_P2
2023/03/16 00:00:42;;;;;;;0.40;0.40;;;1.60;99.90;;;;;;5056028;28;20177;-68
2023/03/16 00:03:10;;;;;;;0.40;0.40;;;1.60;99.90;;;;;;5055996;28;20435;-68
2023/03/16 00:05:35;;;;;;;0.30;0.30;;;1.60;99.90;;;;;;5055854;28;20210;-68
2023/03/16 00:08:01;;;;;;;0.40;0.40;;;1.70;99.90;;;;;;5055757;28;20176;-68
2023/03/16 00:10:27;;;;;;;0.30;0.30;;;1.70;99.90;;;;;;5056024;28;20895;-68
2023/03/16 00:12:53;;;;;;;0.40;0.40;;;1.60;99.90;;;;;;5055855;28;20199;-68
2023/03/16 00:15:20;;;;;;;0.40;0.40;;;1.70;99.90;;;;;;5055726;28;20560;-68
2023/03/16 00:17:48;;;;;;;0.40;0.40;;;1.70;99.90;;;;;;5055773;28;20227;-68
2023/03/16 00:20:16;;;;;;;0.35;0.35;;;1.60;99.80;;;;;;5055616;28;20231;-68
2023/03/16 00:22:43;;;;;;;0.30;0.30;;;1.60;99.80;;;;;;5055459;28;20179;-68
2023/03/16 00:25:11;;;;;;;0.40;0.40;;;1.50;99.90;;;;;;5055515;28;20177;-68
2023/03/16 00:27:36;;;;;;;0.40;0.40;;;1.40;99.90;;;;;;5055570;28;20643;-68
2023/03/16 00:30:02;;;;;;;2.50;1.07;;;1.40;99.90;;;;;;5055562;28;20176;-68
2023/03/16 00:32:33;;;;;;;0.40;0.40;;;1.50;99.90;;;;;;5055207;28;20199;-69
2023/03/16 00:35:03;;;;;;;0.40;0.40;;;1.50;99.90;;;;;;5055149;28;20427;-68
2023/03/16 00:37:31;;;;;;;0.40;0.40;;;1.40;99.90;;;;;;5055223;28;20176;-68
2023/03/16 00:39:57;;;;;;;0.40;0.40;;;1.40;99.90;;;;;;5055322;28;20561;-68
2023/03/16 00:42:26;;;;;;;0.40;0.40;;;1.40;99.90;;;;;;5055197;28;20189;-68
2023/03/16 00:44:56;;;;;;;0.40;0.40;;;1.40;99.90;;;;;;5037165;28;20510;-68
2023/03/16 00:47:27;;;;;;;0.40;0.40;;;1.30;99.90;;;;;;5037388;28;20664;-68
2023/03/16 00:49:53;;;;;;;0.40;0.40;;;1.40;99.90;;;;;;5055108;28;20176;-68
2023/03/16 00:52:21;;;;;;;0.30;0.30;;;1.40;99.90;;;;;;5054846;28;20208;-68
2023/03/16 00:54:47;;;;;;;0.40;0.40;;;1.50;99.90;;;;;;5054890;28;20199;-67
2023/03/16 00:57:17;;;;;;;0.38;0.38;;;1.50;99.90;;;;;;5054943;28;20592;-68
2023/03/16 00:59:46;;;;;;;0.40;0.40;;;1.50;99.90;;;;;;5054950;28;20227;-68
2023/03/16 01:02:13;;;;;;;0.40;0.40;;;1.40;99.90;;;;;;5054604;28;20177;-68
2023/03/16 01:04:40;;;;;;;0.40;0.40;;;1.40;99.90;;;;;;5053541;28;20239;-68
2023/03/16 01:07:12;;;;;;;0.30;0.30;;;1.40;99.90;;;;;;5054714;28;20545;-68
2023/03/16 01:09:42;;;;;;;0.40;0.40;;;1.40;99.90;;;;;;5054668;28;20542;-68
2023/03/16 01:12:13;;;;;;;0.30;0.30;;;1.30;99.90;;;;;;5054599;28;20233;-68
2023/03/16 01:14:40;;;;;;;0.40;0.40;;;1.40;99.90;;;;;;5036681;28;20196;-68
2023/03/16 01:17:07;;;;;;;0.30;0.30;;;1.40;99.90;;;;;;5054562;28;20529;-67
2023/03/16 01:19:35;;;;;;;0.40;0.40;;;1.40;99.90;;;;;;5054577;28;20254;-68
2023/03/16 01:22:02;;;;;;;0.30;0.30;;;1.40;99.90;;;;;;5054405;28;20629;-68
2023/03/16 01:24:29;;;;;;;0.32;0.32;;;1.30;99.90;;;;;;5054394;28;20183;-68
2023/03/16 01:26:55;;;;;;;0.40;0.40;;;1.20;99.90;;;;;;5054480;28;20172;-68
2023/03/16 01:29:21;;;;;;;0.50;0.50;;;1.20;99.90;;;;;;5054323;28;20169;-68
2023/03/16 01:31:48;;;;;;;0.60;0.60;;;1.20;99.90;;;;;;5054051;28;20412;-68
2023/03/16 01:34:16;;;;;;;0.35;0.35;;;1.20;99.90;;;;;;5054113;28;20450;-68
2023/03/16 01:36:43;;;;;;;0.30;0.30;;;1.10;99.90;;;;;;5054238;28;20229;-68
2023/03/16 01:39:10;;;;;;;0.30;0.30;;;1.20;99.90;;;;;;5054366;28;20168;-68
2023/03/16 01:41:36;;;;;;;0.40;0.40;;;1.20;99.90;;;;;;5053884;28;20179;-68
2023/03/16 01:44:02;;;;;;;0.30;0.30;;;1.30;99.90;;;;;;5053968;28;20180;-67
2023/03/16 01:46:28;;;;;;;0.40;0.40;;;1.20;99.90;;;;;;5054234;28;20180;-68
2023/03/16 01:49:04;;;;;;;0.30;0.30;;;1.20;99.90;;;;;;5054011;28;20890;-68
2023/03/16 01:51:55;;;;;;;0.60;0.60;;;1.20;99.90;;;;;;5053903;28;20172;-68
2023/03/16 01:54:32;;;;;;;0.50;0.50;;;1.20;99.90;;;;;;5053794;28;20196;-68
2023/03/16 01:57:06;;;;;;;0.30;0.30;;;1.20;99.90;;;;;;5053839;28;20156;-68
2023/03/16 01:59:44;;;;;;;0.30;0.30;;;1.10;99.90;;;;;;5053870;28;20174;-68
2023/03/16 02:02:12;;;;;;;0.30;0.30;;;1.10;99.90;;;;;;5053779;28;20170;-68
2023/03/16 02:04:43;;;;;;;0.50;0.50;;;1.20;99.90;;;;;;5053595;28;20199;-68
2023/03/16 02:07:09;;;;;;;0.30;0.30;;;1.20;99.90;;;;;;5053688;28;20254;-68
2023/03/16 02:09:41;;;;;;;0.40;0.40;;;1.20;99.90;;;;;;5053635;28;20514;-68
2023/03/16 02:12:08;;;;;;;0.40;0.40;;;1.20;99.90;;;;;;5035515;28;20661;-68
2023/03/16 02:14:34;;;;;;;0.30;0.30;;;1.10;99.90;;;;;;5053389;28;20242;-68
2023/03/16 02:17:00;;;;;;;1.17;0.90;;;1.00;99.90;;;;;;5053356;28;20165;-67
2023/03/16 02:19:48;;;;;;;0.67;0.63;;;1.10;99.90;;;;;;5053681;28;20461;-68
2023/03/16 02:22:15;;;;;;;1.92;1.83;;;1.20;99.90;;;;;;5053435;28;20394;-67
2023/03/16 02:24:41;;;;;;;0.40;0.40;;;1.10;99.90;;;;;;5053357;28;20614;-67
2023/03/16 02:27:11;;;;;;;1.53;1.43;;;1.10;99.90;;;;;;5053495;28;20172;-68
2023/03/16 02:29:58;;;;;;;0.30;0.30;;;1.10;99.90;;;;;;5053508;28;20436;-68
2023/03/16 02:32:26;;;;;;;0.40;0.40;;;1.10;99.90;;;;;;5053083;28;20533;-68
2023/03/16 02:34:53;;;;;;;0.30;0.30;;;1.00;99.90;;;;;;5053410;28;20182;-68
2023/03/16 02:37:18;;;;;;;0.40;0.40;;;1.00;99.90;;;;;;5053295;28;20175;-68
2023/03/16 02:39:44;;;;;;;0.30;0.30;;;1.00;99.90;;;;;;5053332;28;20180;-68
2023/03/16 02:42:14;;;;;;;0.30;0.30;;;1.30;99.90;;;;;;5053016;28;20466;-68
2023/03/16 02:44:44;;;;;;;0.30;0.30;;;1.20;99.90;;;;;;5053388;28;20555;-67
2023/03/16 02:47:18;;;;;;;0.40;0.40;;;1.20;99.90;;;;;;5053365;28;20167;-68
2023/03/16 02:49:44;;;;;;;0.40;0.40;;;1.10;99.90;;;;;;5053239;28;20178;-68
2023/03/16 02:52:11;;;;;;;0.30;0.30;;;1.10;99.90;;;;;;5053075;28;20194;-68
2023/03/16 02:54:37;;;;;;;0.30;0.30;;;1.10;99.90;;;;;;5052973;28;20191;-68
2023/03/16 02:57:03;;;;;;;0.30;0.30;;;1.00;99.90;;;;;;5053068;28;20175;-68
2023/03/16 02:59:30;;;;;;;0.30;0.30;;;1.10;99.90;;;;;;5053026;28;20401;-68
2023/03/16 03:01:55;;;;;;;0.30;0.30;;;1.10;99.90;;;;;;5053037;28;20182;-68
2023/03/16 03:04:22;;;;;;;0.30;0.30;;;1.10;99.90;;;;;;5052887;28;20272;-68
2023/03/16 03:06:48;;;;;;;0.30;0.30;;;1.10;99.90;;;;;;5053161;28;20172;-68
2023/03/16 03:09:14;;;;;;;0.35;0.35;;;1.00;99.90;;;;;;5052897;28;20505;-68
2023/03/16 03:11:40;;;;;;;0.30;0.30;;;1.00;99.90;;;;;;5052911;28;20178;-68
2023/03/16 03:14:05;;;;;;;0.40;0.40;;;1.00;99.90;;;;;;5052816;28;20236;-68
2023/03/16 03:16:31;;;;;;;0.30;0.30;;;1.00;99.90;;;;;;5035029;28;20638;-68
2023/03/16 03:18:57;;;;;;;0.30;0.30;;;1.10;99.90;;;;;;5034857;28;20168;-68
2023/03/16 03:21:23;;;;;;;1.23;1.20;;;1.00;99.90;;;;;;5052730;28;20168;-68
2023/03/16 03:23:49;;;;;;;0.30;0.30;;;0.90;99.90;;;;;;5052636;28;20202;-68
2023/03/16 03:26:15;;;;;;;0.40;0.40;;;0.90;99.90;;;;;;5052945;28;20208;-67
2023/03/16 03:28:41;;;;;;;0.40;0.40;;;0.80;99.90;;;;;;5055911;28;20492;-68
2023/03/16 03:31:13;;;;;;;0.40;0.40;;;0.90;99.90;;;;;;5056627;28;20207;-67
2023/03/16 03:33:39;;;;;;;0.30;0.30;;;1.00;99.90;;;;;;5056355;28;20210;-67
2023/03/16 03:36:05;;;;;;;0.50;0.50;;;1.10;99.90;;;;;;5056436;28;20176;-68
2023/03/16 03:38:30;;;;;;;0.30;0.30;;;1.00;99.90;;;;;;5056441;28;20395;-67
2023/03/16 03:40:59;;;;;;;0.40;0.40;;;1.00;99.90;;;;;;5056420;28;20410;-68
2023/03/16 03:43:25;;;;;;;0.40;0.40;;;1.00;99.90;;;;;;5056424;28;20199;-68
2023/03/16 03:45:59;;;;;;;0.30;0.30;;;1.00;99.90;;;;;;5056316;28;20177;-68
2023/03/16 03:48:25;;;;;;;1.88;1.77;;;1.00;99.90;;;;;;5056227;28;20434;-68
2023/03/16 03:50:51;;;;;;;0.30;0.30;;;0.90;99.90;;;;;;5056195;28;20207;-68
2023/03/16 03:53:17;;;;;;;0.60;0.50;;;0.80;99.90;;;;;;5056010;28;21012;-68
2023/03/16 03:55:43;;;;;;;1.15;1.15;;;0.80;99.90;;;;;;5056198;28;20225;-68
2023/03/16 03:58:08;;;;;;;0.40;0.40;;;1.00;99.90;;;;;;5056078;28;20574;-68
2023/03/16 04:00:34;;;;;;;0.40;0.40;;;0.90;99.90;;;;;;5055998;28;20171;-67
2023/03/16 04:03:00;;;;;;;0.30;0.30;;;1.00;99.90;;;;;;5056013;28;20192;-67
2023/03/16 04:05:26;;;;;;;0.33;0.33;;;1.00;99.90;;;;;;5055910;28;20184;-68
2023/03/16 04:07:56;;;;;;;0.40;0.40;;;1.00;99.90;;;;;;5055931;28;20509;-68
2023/03/16 04:10:25;;;;;;;11.15;1.08;;;1.00;99.90;;;;;;5055684;28;20432;-68
2023/03/16 04:12:51;;;;;;;0.35;0.35;;;0.80;99.90;;;;;;5055616;28;20731;-68
2023/03/16 04:15:17;;;;;;;0.40;0.40;;;0.80;99.90;;;;;;5055873;28;20175;-67
2023/03/16 04:17:43;;;;;;;0.63;0.63;;;0.80;99.90;;;;;;5055871;28;20415;-68
2023/03/16 04:20:13;;;;;;;0.30;0.30;;;0.80;99.90;;;;;;5037674;28;20410;-67
2023/03/16 04:22:41;;;;;;;0.40;0.40;;;0.80;99.90;;;;;;5055774;28;20529;-67
2023/03/16 04:25:09;;;;;;;0.43;0.43;;;0.90;99.90;;;;;;5037706;28;20193;-68
2023/03/16 04:27:35;;;;;;;0.77;0.77;;;0.80;99.90;;;;;;5037777;28;20193;-67
2023/03/16 04:30:05;;;;;;;0.88;0.88;;;0.80;99.90;;;;;;5055707;28;20172;-67
2023/03/16 04:32:33;;;;;;;0.30;0.30;;;0.80;99.90;;;;;;5055022;28;20209;-68
2023/03/16 04:34:59;;;;;;;0.30;0.30;;;0.60;99.90;;;;;;5055817;28;20169;-68
2023/03/16 04:37:25;;;;;;;0.40;0.40;;;0.60;99.90;;;;;;5055465;28;20174;-68
2023/03/16 04:39:51;;;;;;;0.40;0.40;;;0.70;99.90;;;;;;5055110;28;20203;-68
2023/03/16 04:42:17;;;;;;;1.60;1.00;;;0.70;99.90;;;;;;5055256;28;20229;-67
2023/03/16 04:44:43;;;;;;;0.30;0.30;;;0.70;99.90;;;;;;5055125;28;20196;-68
2023/03/16 04:47:12;;;;;;;0.60;0.60;;;0.80;99.90;;;;;;5037267;28;20514;-68
2023/03/16 04:49:38;;;;;;;0.40;0.40;;;0.80;99.90;;;;;;5055168;28;20171;-68
2023/03/16 04:52:04;;;;;;;0.30;0.30;;;0.80;99.90;;;;;;5054968;28;20294;-68
2023/03/16 04:54:31;;;;;;;0.63;0.63;;;0.80;99.90;;;;;;5054907;28;20438;-67
2023/03/16 04:56:56;;;;;;;0.30;0.30;;;1.00;99.90;;;;;;5037189;28;20685;-67
2023/03/16 04:59:22;;;;;;;0.40;0.40;;;0.90;99.90;;;;;;5055162;28;20167;-68
2023/03/16 05:01:48;;;;;;;0.40;0.40;;;1.00;99.90;;;;;;5054879;28;20179;-67
2023/03/16 05:04:14;;;;;;;0.30;0.30;;;0.90;99.90;;;;;;5054751;28;20195;-67
2023/03/16 05:06:40;;;;;;;1.13;1.13;;;0.90;99.90;;;;;;5054786;28;20188;-67
2023/03/16 05:09:07;;;;;;;0.40;0.40;;;0.90;99.90;;;;;;5054862;28;20417;-67
2023/03/16 05:11:33;;;;;;;0.65;0.65;;;0.90;99.90;;;;;;5054421;28;20167;-68
2023/03/16 05:14:00;;;;;;;0.55;0.55;;;0.90;99.90;;;;;;5054351;28;20261;-68
2023/03/16 05:16:26;;;;;;;0.73;0.73;;;0.90;99.90;;;;;;5054548;28;20180;-68
2023/03/16 05:18:52;;;;;;;0.40;0.40;;;0.90;99.90;;;;;;5054431;28;20172;-68
2023/03/16 05:21:18;;;;;;;0.40;0.40;;;0.90;99.90;;;;;;5054604;28;20528;-68
2023/03/16 05:23:43;;;;;;;0.30;0.30;;;0.80;99.90;;;;;;5054347;28;20196;-67
2023/03/16 05:26:09;;;;;;;0.60;0.60;;;0.80;99.90;;;;;;5054720;28;20181;-67
2023/03/16 05:28:34;;;;;;;2.60;2.50;;;0.80;99.90;;;;;;5054532;28;20173;-67
2023/03/16 05:31:02;;;;;;;0.30;0.30;;;0.80;99.90;;;;;;5054195;28;20176;-68
2023/03/16 05:33:28;;;;;;;1.02;1.02;;;0.90;99.90;;;;;;5054339;28;20207;-67
2023/03/16 05:35:54;;;;;;;0.40;0.40;;;0.80;99.90;;;;;;5054616;28;20571;-68
2023/03/16 05:38:19;;;;;;;0.40;0.40;;;0.80;99.90;;;;;;5054534;28;20911;-67
2023/03/16 05:40:45;;;;;;;0.30;0.30;;;0.80;99.90;;;;;;5054142;28;20172;-68
2023/03/16 05:43:10;;;;;;;0.40;0.40;;;0.80;99.90;;;;;;5054226;28;20202;-67
2023/03/16 05:45:36;;;;;;;0.93;0.93;;;0.90;99.90;;;;;;5036143;28;20181;-68
2023/03/16 05:48:04;;;;;;;0.40;0.40;;;0.90;99.90;;;;;;5054207;28;20256;-67
2023/03/16 05:50:30;;;;;;;0.30;0.30;;;0.90;99.90;;;;;;5053328;28;20172;-68
2023/03/16 05:52:55;;;;;;;0.40;0.40;;;1.00;99.90;;;;;;5053886;28;20611;-67
2023/03/16 05:55:22;;;;;;;0.30;0.30;;;1.10;99.90;;;;;;5035996;28;20187;-68
2023/03/16 05:57:47;;;;;;;0.40;0.40;;;1.10;99.90;;;;;;5036024;28;20324;-68
2023/03/16 06:00:15;;;;;;;0.40;0.40;;;1.20;99.90;;;;;;5053610;28;20201;-68
2023/03/16 06:02:42;;;;;;;0.40;0.40;;;1.30;99.90;;;;;;5053689;28;20176;-67
2023/03/16 06:05:08;;;;;;;0.50;0.50;;;1.30;99.90;;;;;;5035837;28;20219;-68
2023/03/16 06:07:34;;;;;;;0.30;0.30;;;1.40;99.90;;;;;;5035743;28;20225;-68
2023/03/16 06:10:00;;;;;;;0.40;0.40;;;1.50;99.70;;;;;;5053846;28;20222;-67
2023/03/16 06:12:26;;;;;;;0.30;0.30;;;1.60;99.80;;;;;;5053261;28;20612;-68
2023/03/16 06:14:51;;;;;;;0.30;0.30;;;1.70;99.70;;;;;;5053429;28;20436;-68
2023/03/16 06:17:17;;;;;;;0.40;0.40;;;1.70;99.80;;;;;;5053598;28;20204;-67
2023/03/16 06:19:43;;;;;;;0.40;0.40;;;1.80;99.90;;;;;;5053550;28;20230;-68
2023/03/16 06:22:08;;;;;;;0.40;0.40;;;2.00;99.90;;;;;;5053483;28;20170;-68
2023/03/16 06:24:34;;;;;;;0.40;0.40;;;2.00;99.80;;;;;;5053376;28;20190;-68
2023/03/16 06:26:59;;;;;;;0.30;0.30;;;2.20;99.80;;;;;;5053543;28;20166;-67
2023/03/16 06:29:25;;;;;;;0.30;0.30;;;2.50;99.50;;;;;;5053297;28;20189;-67
2023/03/16 06:31:51;;;;;;;0.47;0.47;;;2.60;98.80;;;;;;5053105;28;20630;-68
2023/03/16 06:34:17;;;;;;;0.40;0.40;;;2.60;98.50;;;;;;5053056;28;20212;-68
2023/03/16 06:36:43;;;;;;;0.40;0.40;;;2.70;98.50;;;;;;5053152;28;20464;-68
2023/03/16 06:39:09;;;;;;;0.50;0.50;;;2.90;98.00;;;;;;5053397;28;20173;-68
2023/03/16 06:41:34;;;;;;;2.00;0.63;;;2.90;97.90;;;;;;5053067;28;20670;-68
2023/03/16 06:44:01;;;;;;;0.30;0.30;;;2.80;97.90;;;;;;5053066;28;20539;-68
2023/03/16 06:46:27;;;;;;;0.60;0.60;;;2.90;97.90;;;;;;5053188;28;20171;-68
2023/03/16 06:48:52;;;;;;;0.87;0.87;;;3.00;97.90;;;;;;5053451;28;20277;-68
2023/03/16 06:51:18;;;;;;;0.50;0.50;;;3.20;97.70;;;;;;5052924;28;20173;-68
2023/03/16 06:53:44;;;;;;;0.70;0.70;;;3.20;97.40;;;;;;5052947;28;20201;-68
2023/03/16 06:56:09;;;;;;;0.30;0.30;;;3.10;97.20;;;;;;5052998;28;20163;-68
2023/03/16 06:58:35;;;;;;;0.30;0.30;;;3.20;97.30;;;;;;5053074;28;20176;-68
2023/03/16 07:01:03;;;;;;;0.50;0.50;;;3.30;97.10;;;;;;5053021;28;20191;-68
2023/03/16 07:03:28;;;;;;;0.90;0.90;;;3.80;97.30;;;;;;5057057;28;20190;-68
2023/03/16 07:05:54;;;;;;;2.63;2.30;;;4.60;96.20;;;;;;5057149;28;20180;-68
2023/03/16 07:08:20;;;;;;;0.57;0.57;;;5.90;96.10;;;;;;5056969;28;20510;-68
2023/03/16 07:10:45;;;;;;;0.50;0.50;;;7.20;93.10;;;;;;5056897;28;20636;-68
2023/03/16 07:13:11;;;;;;;1.73;1.57;;;8.40;90.70;;;;;;5056791;28;20687;-68
2023/03/16 07:15:37;;;;;;;0.93;0.80;;;9.80;86.10;;;;;;5056997;28;20650;-69
2023/03/16 07:18:02;;;;;;;1.47;0.87;;;11.40;80.20;;;;;;5056944;28;20198;-69
2023/03/16 07:20:30;;;;;;;0.80;0.70;;;13.20;72.10;;;;;;5056648;28;20262;-69
2023/03/16 07:22:56;;;;;;;1.73;1.63;;;14.90;63.70;;;;;;5056535;28;20247;-69
2023/03/16 07:25:22;;;;;;;5.73;2.27;;;16.40;57.40;;;;;;5056743;28;20413;-69
2023/03/16 07:27:47;;;;;;;0.97;0.87;;;17.80;52.90;;;;;;5056712;28;20177;-67
2023/03/16 07:30:13;;;;;;;0.40;0.40;;;19.10;49.40;;;;;;5056521;28;20170;-67
2023/03/16 07:32:40;;;;;;;0.40;0.40;;;20.40;45.20;;;;;;5056401;28;20222;-68
2023/03/16 07:35:08;;;;;;;0.40;0.40;;;21.40;42.80;;;;;;5056588;28;20172;-68
2023/03/16 07:37:34;;;;;;;0.40;0.40;;;21.80;41.10;;;;;;5056771;28;20426;-69
2023/03/16 07:40:00;;;;;;;0.60;0.60;;;21.30;40.10;;;;;;5056608;28;20488;-67
2023/03/16 07:42:25;;;;;;;0.67;0.67;;;19.90;38.00;;;;;;5056289;28;20179;-67
2023/03/16 07:44:51;;;;;;;1.00;1.00;;;17.60;38.70;;;;;;5056247;28;20432;-67
2023/03/16 07:47:17;;;;;;;2.73;1.47;;;16.10;42.60;;;;;;5056998;28;20172;-69
2023/03/16 07:49:43;;;;;;;20.27;1.60;;;14.20;45.70;;;;;;5056496;28;20189;-69
2023/03/16 07:52:12;;;;;;;0.77;0.57;;;12.50;48.80;;;;;;5056173;28;20433;-69
2023/03/16 07:54:39;;;;;;;1.13;1.13;;;11.50;50.90;;;;;;5056310;28;20605;-69
2023/03/16 07:57:05;;;;;;;2.17;1.30;;;11.10;52.70;;;;;;5056374;28;20477;-69
2023/03/16 07:59:31;;;;;;;0.97;0.97;;;11.30;54.60;;;;;;5056188;28;20917;-69
2023/03/16 08:01:56;;;;;;;1.20;1.10;;;12.30;53.40;;;;;;5055953;28;20399;-69
2023/03/16 08:04:22;;;;;;;0.63;0.63;;;14.30;51.30;;;;;;5056078;28;20576;-69
2023/03/16 08:06:48;;;;;;;0.70;0.60;;;16.30;48.70;;;;;;5056168;28;20173;-69
2023/03/16 08:09:14;;;;;;;0.40;0.40;;;17.80;43.40;;;;;;5055897;28;20196;-69
2023/03/16 08:11:40;;;;;;;0.40;0.40;;;18.40;39.20;;;;;;5055694;28;20660;-70
2023/03/16 08:14:06;;;;;;;0.83;0.83;;;19.40;39.40;;;;;;5055257;28;20458;-70
2023/03/16 08:16:32;;;;;;;0.40;0.40;;;20.00;38.30;;;;;;5055989;28;20375;-68
2023/03/16 08:18:58;;;;;;;0.60;0.53;;;20.90;39.80;;;;;;5055958;28;20379;-68
2023/03/16 08:21:24;;;;;;;0.40;0.40;;;22.10;39.60;;;;;;5055521;28;20158;-68
2023/03/16 08:23:50;;;;;;;0.70;0.47;;;23.20;37.30;;;;;;5056158;28;20432;-68
2023/03/16 08:26:17;;;;;;;1.13;0.50;;;24.10;35.00;;;;;;5055602;28;20174;-68
2023/03/16 08:28:45;;;;;;;0.93;0.93;;;24.40;34.10;;;;;;5055640;28;20785;-68
2023/03/16 08:31:12;;;;;;;0.80;0.43;;;24.40;33.60;;;;;;5055356;28;20432;-68
2023/03/16 08:33:38;;;;;;;0.30;0.30;;;24.40;32.70;;;;;;5055160;28;20467;-68
2023/03/16 08:36:08;;;;;;;0.40;0.40;;;23.90;32.00;;;;;;5055418;28;20413;-68
2023/03/16 08:38:34;;;;;;;0.50;0.40;;;23.40;33.00;;;;;;5055409;28;20397;-68
2023/03/16 08:41:00;;;;;;;0.30;0.30;;;22.70;32.00;;;;;;5055375;28;20963;-68
2023/03/16 08:43:26;;;;;;;0.40;0.40;;;22.50;31.50;;;;;;5055180;28;20666;-68
2023/03/16 08:45:52;;;;;;;0.40;0.40;;;21.40;31.90;;;;;;5055251;28;20403;-68
2023/03/16 08:48:19;;;;;;;0.40;0.40;;;20.70;31.90;;;;;;5055372;28;20166;-68
2023/03/16 08:50:45;;;;;;;0.40;0.40;;;20.80;32.70;;;;;;5055047;28;20947;-68
2023/03/16 08:53:12;;;;;;;0.40;0.40;;;21.00;32.00;;;;;;5055198;28;20547;-68
2023/03/16 08:55:40;;;;;;;0.47;0.43;;;19.20;32.00;;;;;;5055130;28;20387;-68
2023/03/16 08:58:07;;;;;;;0.30;0.30;;;18.60;34.60;;;;;;5055115;28;20376;-68
2023/03/16 09:00:33;;;;;;;0.40;0.40;;;19.10;35.10;;;;;;5054879;28;20927;-68
2023/03/16 09:02:59;;;;;;;0.60;0.60;;;19.70;34.70;;;;;;5055061;28;20435;-68
2023/03/16 09:05:25;;;;;;;0.50;0.50;;;21.00;33.00;;;;;;5054806;28;20436;-68
2023/03/16 09:07:52;;;;;;;0.40;0.40;;;22.10;32.30;;;;;;5036936;28;20419;-68
2023/03/16 09:10:21;;;;;;;0.50;0.40;;;23.10;31.50;;;;;;5055040;28;20798;-68
2023/03/16 09:12:51;;;;;;;1.50;0.90;;;23.50;30.70;;;;;;5054769;28;20449;-68
2023/03/16 09:15:18;;;;;;;1.43;0.70;;;24.30;30.50;;;;;;5054719;28;21011;-68
2023/03/16 09:17:44;;;;;;;0.40;0.40;;;25.20;30.10;;;;;;5054854;28;20408;-68
2023/03/16 09:20:12;;;;;;;0.30;0.30;;;25.20;29.50;;;;;;5054371;28;20837;-68
2023/03/16 09:22:37;;;;;;;0.30;0.30;;;25.40;29.20;;;;;;5054455;28;20397;-68
2023/03/16 09:25:05;;;;;;;0.63;0.63;;;25.70;28.20;;;;;;5053492;28;20471;-68
2023/03/16 09:27:32;;;;;;;0.30;0.30;;;25.90;27.70;;;;;;5053279;28;20704;-69
2023/03/16 09:29:59;;;;;;;0.40;0.40;;;25.80;28.80;;;;;;5053632;28;20405;-71
2023/03/16 09:32:27;;;;;;;0.50;0.47;;;25.80;27.90;;;;;;5053943;28;20498;-68
2023/03/16 09:34:53;;;;;;;0.40;0.40;;;25.40;28.20;;;;;;5054385;28;20773;-68
2023/03/16 09:37:20;;;;;;;0.30;0.30;;;24.70;27.60;;;;;;5054376;28;20516;-68
2023/03/16 09:39:46;;;;;;;0.50;0.47;;;23.60;28.30;;;;;;5054736;28;20762;-68
2023/03/16 09:42:29;;;;;;;0.40;0.40;;;23.30;28.60;;;;;;5054519;28;20401;-68
2023/03/16 09:45:17;;;;;;;0.40;0.40;;;23.50;28.50;;;;;;5054078;28;20420;-68
2023/03/16 09:47:46;;;;;;;0.40;0.37;;;23.20;28.30;;;;;;5054299;28;20405;-68
2023/03/16 09:50:27;;;;;;;0.40;0.40;;;21.90;28.70;;;;;;5054443;28;20448;-68
2023/03/16 09:53:06;;;;;;;0.30;0.30;;;21.60;29.40;;;;;;5053922;28;20427;-68
2023/03/16 09:55:32;;;;;;;0.40;0.40;;;21.70;30.90;;;;;;5053980;28;20387;-68
2023/03/16 09:57:59;;;;;;;0.30;0.30;;;22.00;30.80;;;;;;5051391;28;20380;-68
2023/03/16 10:00:36;;;;;;;0.50;0.50;;;22.20;29.80;;;;;;5053742;28;20165;-68
2023/03/16 10:03:13;;;;;;;0.50;0.50;;;21.90;30.30;;;;;;5035417;28;20839;-68
2023/03/16 10:05:39;;;;;;;0.33;0.33;;;21.70;30.00;;;;;;5053151;28;20474;-68
2023/03/16 10:08:31;;;;;;;0.30;0.30;;;20.10;31.20;;;;;;5053884;28;20466;-68
2023/03/16 10:11:21;;;;;;;0.40;0.40;;;19.50;33.00;;;;;;5053713;28;20394;-68
2023/03/16 10:14:18;;;;;;;0.50;0.50;;;18.50;32.50;;;;;;5035735;28;20475;-68
2023/03/16 10:16:51;;;;;;;0.30;0.30;;;17.40;33.30;;;;;;5053979;28;20395;-68
2023/03/16 10:19:31;;;;;;;0.30;0.30;;;17.50;33.90;;;;;;5053563;28;20401;-67
2023/03/16 10:22:01;;;;;;;0.40;0.40;;;17.30;33.60;;;;;;5053547;28;20389;-68
2023/03/16 10:24:41;;;;;;;0.37;0.37;;;17.80;34.20;;;;;;5035701;28;20425;-67
2023/03/16 10:27:18;;;;;;;1.13;1.10;;;17.10;35.60;;;;;;5052905;28;20404;-68
2023/03/16 10:29:43;;;;;;;0.40;0.30;;;17.00;33.80;;;;;;5053320;28;20429;-68
2023/03/16 10:32:17;;;;;;;0.30;0.30;;;16.70;33.70;;;;;;5053221;28;20774;-67
2023/03/16 10:34:51;;;;;;;0.50;0.50;;;16.30;34.40;;;;;;5053087;28;20209;-67
2023/03/16 10:37:19;;;;;;;0.40;0.40;;;15.10;35.40;;;;;;5053221;28;20395;-67
2023/03/16 10:39:47;;;;;;;0.50;0.50;;;14.00;35.30;;;;;;5053281;28;20547;-67
2023/03/16 10:42:17;;;;;;;0.53;0.53;;;13.90;37.10;;;;;;5053090;28;20412;-67
2023/03/16 10:44:43;;;;;;;2.20;1.00;;;13.40;37.90;;;;;;5053089;28;20432;-67
2023/03/16 10:47:21;;;;;;;0.40;0.40;;;12.90;38.00;;;;;;5053302;28;20917;-67
2023/03/16 10:49:48;;;;;;;0.70;0.70;;;12.70;37.50;;;;;;5053135;28;20510;-67
2023/03/16 10:52:18;;;;;;;0.30;0.30;;;12.60;38.40;;;;;;5052927;28;20807;-67
2023/03/16 10:55:00;;;;;;;0.80;0.80;;;12.90;40.60;;;;;;5053084;28;20510;-69
2023/03/16 10:57:32;;;;;;;0.43;0.43;;;12.70;40.00;;;;;;5053243;28;20882;-69
2023/03/16 11:00:08;;;;;;;0.70;0.70;;;12.70;40.70;;;;;;5053198;28;20401;-69
2023/03/16 11:02:34;;;;;;;0.40;0.40;;;13.10;41.00;;;;;;5053143;28;20408;-69
2023/03/16 11:05:18;;;;;;;0.43;0.43;;;13.40;40.00;;;;;;5052909;28;20404;-69
2023/03/16 11:08:10;;;;;;;0.70;0.70;;;13.50;39.80;;;;;;5053123;28;20174;-69
2023/03/16 11:10:43;;;;;;;0.30;0.30;;;13.40;38.80;;;;;;5052984;28;20401;-69
2023/03/16 11:13:16;;;;;;;0.40;0.40;;;13.00;39.30;;;;;;5053019;28;20452;-69
2023/03/16 11:16:22;;;;;;;0.40;0.40;;;12.90;40.50;;;;;;5053055;28;20424;-69
2023/03/16 11:18:56;;;;;;;1.03;0.97;;;12.60;38.70;;;;;;5052830;28;20399;-69
2023/03/16 11:22:00;;;;;;;1.67;0.80;;;12.50;38.90;;;;;;5052931;28;20400;-69
2023/03/16 11:24:54;;;;;;;0.50;0.50;;;12.40;39.70;;;;;;5052849;28;20992;-69
2023/03/16 11:27:43;;;;;;;0.30;0.30;;;12.60;38.40;;;;;;5052916;28;20408;-69
2023/03/16 11:30:23;;;;;;;0.40;0.40;;;12.50;38.70;;;;;;5047164;28;20413;-69
2023/03/16 11:32:52;;;;;;;0.97;0.87;;;12.30;38.40;;;;;;5052665;28;20456;-69
2023/03/16 11:35:26;;;;;;;0.90;0.53;;;12.40;38.70;;;;;;5052611;28;20897;-69
2023/03/16 11:38:01;;;;;;;2.53;1.60;;;12.40;40.00;;;;;;5052773;28;20438;-69
2023/03/16 11:40:44;;;;;;;1.40;1.27;;;12.30;38.50;;;;;;5052358;28;20498;-69
2023/03/16 11:43:48;;;;;;;0.30;0.30;;;12.20;39.20;;;;;;5053075;28;20432;-69
2023/03/16 11:46:29;;;;;;;0.40;0.40;;;12.40;42.10;;;;;;5052663;28;20459;-69
2023/03/16 11:49:12;;;;;;;0.30;0.30;;;12.20;38.60;;;;;;5054191;28;20464;-69
2023/03/16 11:51:41;;;;;;;0.40;0.40;;;12.30;38.60;;;;;;5056242;28;20513;-69
2023/03/16 11:54:25;;;;;;;0.40;0.40;;;12.20;38.50;;;;;;5056269;28;20456;-69
2023/03/16 11:56:58;;;;;;;0.40;0.40;;;12.10;37.10;;;;;;5056578;28;20979;-69
2023/03/16 11:59:40;;;;;;;0.50;0.40;;;12.10;37.20;;;;;;5056385;28;20742;-69
2023/03/16 12:02:09;;;;;;;0.40;0.40;;;12.40;39.40;;;;;;5056159;28;20401;-69
2023/03/16 12:04:58;;;;;;;0.30;0.30;;;12.50;38.40;;;;;;5056158;28;20442;-69
2023/03/16 12:07:50;;;;;;;1.27;0.80;;;12.30;38.00;;;;;;5056125;28;20411;-69
2023/03/16 12:10:22;;;;;;;0.40;0.40;;;12.40;37.90;;;;;;5055886;28;20407;-69
2023/03/16 12:13:15;;;;;;;0.50;0.50;;;12.40;38.60;;;;;;5055985;28;20440;-69
2023/03/16 12:15:53;;;;;;;0.40;0.40;;;12.30;38.80;;;;;;5056037;28;20753;-69
2023/03/16 12:18:34;;;;;;;1.07;0.80;;;12.40;39.70;;;;;;5056015;28;20398;-69
2023/03/16 12:21:08;;;;;;;0.40;0.40;;;12.60;38.90;;;;;;5037793;28;20416;-69
2023/03/16 12:24:05;;;;;;;0.47;0.47;;;12.50;39.10;;;;;;5055921;28;20451;-69
2023/03/16 12:26:35;;;;;;;2.00;0.93;;;12.50;40.10;;;;;;5054032;28;20431;-69
2023/03/16 12:29:19;;;;;;;0.30;0.30;;;12.30;40.50;;;;;;5055560;28;20404;-69
2023/03/16 12:32:02;;;;;;;0.40;0.40;;;12.30;41.90;;;;;;5055455;28;20405;-69
2023/03/16 12:34:39;;;;;;;3.40;1.13;;;12.40;42.20;;;;;;5055318;28;20452;-69
2023/03/16 12:37:26;;;;;;;1.43;1.43;;;12.60;41.70;;;;;;5055576;28;20404;-69
2023/03/16 12:40:07;;;;;;;0.50;0.50;;;12.90;42.70;;;;;;5055467;28;20403;-69
2023/03/16 12:42:55;;;;;;;0.97;0.47;;;12.80;43.40;;;;;;5055456;28;20833;-69
2023/03/16 12:45:50;;;;;;;0.40;0.40;;;12.90;44.30;;;;;;5055391;28;20407;-69
2023/03/16 12:48:32;;;;;;;0.50;0.50;;;12.50;43.10;;;;;;5055394;28;20959;-69
2023/03/16 12:51:04;;;;;;;0.60;0.60;;;12.40;42.10;;;;;;5055266;28;20823;-69
2023/03/16 12:53:53;;;;;;;0.60;0.60;;;12.30;46.50;;;;;;5054973;28;21038;-69
2023/03/16 12:56:42;;;;;;;1.23;0.83;;;12.30;43.90;;;;;;5055059;28;20404;-69
2023/03/16 12:59:18;;;;;;;0.47;0.47;;;12.30;44.30;;;;;;5055366;28;20745;-69
2023/03/16 13:01:47;;;;;;;0.40;0.40;;;12.30;41.60;;;;;;5055038;28;20385;-69
2023/03/16 13:04:22;;;;;;;0.40;0.40;;;12.30;43.60;;;;;;5054845;28;20432;-69
2023/03/16 13:07:01;;;;;;;0.47;0.47;;;12.40;42.50;;;;;;5055080;28;20404;-69